WetterOnline ( http://www.wetteronline.de )

Wetter aktuell Osnabrück

Aktuelles Wetter: Belm (103m)

6-stündlich | Neueste Meldungen
Ortszeit Temperatur Wetter
Do, 16.08. 2:00 18.0° C leicht bewölkt
Mi, 15.08. 20:00 22.7° C bedeckt
Mi, 15.08. 14:00 22.7° C bedeckt
Mi, 15.08. 8:00 16.6° C leicht bewölkt
Mi, 15.08. 2:00 15.6° C wolkig
Di, 14.08. 20:00 19.6° C bewölkt
Di, 14.08. 14:00 17.2° C Sprühregen
Di, 14.08. 8:00 16.7° C Sprühregen
Ortszeit Temperatur Wetter
Do, 16.08. 3:30 16.8° C leicht bewölkt
Do, 16.08. 3:20 16.8° C leicht bewölkt
Do, 16.08. 3:10 16.4° C wolkig
Do, 16.08. 3:00 17.3° C bewölkt
Do, 16.08. 2:50 17.3° C bewölkt
Do, 16.08. 2:40 17.7° C bedeckt
Do, 16.08. 2:30 17.4° C bewölkt
Do, 16.08. 2:00 18.0° C leicht bewölkt
Do, 16.08. 1:30 18.5° C wolkig
Do, 16.08. 1:00 19.1° C wolkig
Do, 16.08. 0:30 19.2° C bewölkt
Ortszeit Relative Feuchte Sichtweite
Do, 16.08. 2:00 83% 13 km
Mi, 15.08. 20:00 60% 27 km
Mi, 15.08. 14:00 58% 29 km
Mi, 15.08. 8:00 87% 10 km
Mi, 15.08. 2:00 84% 65 km
Di, 14.08. 20:00 67% 70 km
Di, 14.08. 14:00 94% 6 km
Di, 14.08. 8:00 97% 3.8 km
Ortszeit Relative Feuchte Sichtweite
Do, 16.08. 3:30 90% 11 km
Do, 16.08. 3:20 90% -
Do, 16.08. 3:10 91% -
Do, 16.08. 3:00 87% 11 km
Do, 16.08. 2:50 87% -
Do, 16.08. 2:40 85% -
Do, 16.08. 2:30 86% 13 km
Do, 16.08. 2:00 83% 13 km
Do, 16.08. 1:30 80% 14 km
Do, 16.08. 1:00 78% 13 km
Do, 16.08. 0:30 77% 13 km
Ortszeit Niederschlagsmenge Niederschlagsart
Do, 16.08. 2:00 0.0 l/m2 in 6 Std. -
Mi, 15.08. 20:00 0.0 l/m2 in 12 Std. -
Mi, 15.08. 14:00 0.0 l/m2 in 6 Std. -
Mi, 15.08. 8:00 0.0 l/m2 in 12 Std. -
Mi, 15.08. 2:00 0.0 l/m2 in 6 Std. -
Di, 14.08. 20:00 1 l/m2 in 12 Std. Regen
Di, 14.08. 14:00 1 l/m2 in 6 Std. Regen
Di, 14.08. 8:00 0.1 l/m2 in 12 Std. Regen
Ortszeit Niederschlagsmenge Niederschlagsart
Do, 16.08. 3:30 0.0 l/m2 in 1 Std. -
Do, 16.08. 3:20 keine Meldung -
Do, 16.08. 3:10 keine Meldung -
Do, 16.08. 3:00 0.0 l/m2 in 1 Std. -
Do, 16.08. 2:50 keine Meldung -
Do, 16.08. 2:40 keine Meldung -
Do, 16.08. 2:30 0.0 l/m2 in 1 Std. -
Do, 16.08. 2:00 0.0 l/m2 in 1 Std. -
Do, 16.08. 1:30 0.0 l/m2 in 1 Std. -
Do, 16.08. 1:00 0.0 l/m2 in 1 Std. -
Do, 16.08. 0:30 0.0 l/m2 in 1 Std. -
Ortszeit Stärke Spitze Richtung
km/h Bft. km/h Grad Sektor
Do, 16.08. 2:00 2 1 20 130° SO
Mi, 15.08. 20:00 14 3 29 230° SW
Mi, 15.08. 14:00 17 3 28 230° SW
Mi, 15.08. 8:00 6 1 11 180° S
Mi, 15.08. 2:00 4 1 25 170° S
Di, 14.08. 20:00 14 3 50 290° W
Di, 14.08. 14:00 22 4 46 260° W
Di, 14.08. 8:00 14 3 29 230° SW
Ortszeit Stärke Spitze Richtung
km/h Bft. km/h Grad Sektor
Do, 16.08. 3:30 4 1 4 190° S
Do, 16.08. 3:20 4 1 - 190° S
Do, 16.08. 3:10 4 1 - 140° SO
Do, 16.08. 3:00 2 1 6 150° SO
Do, 16.08. 2:50 2 1 - 150° SO
Do, 16.08. 2:40 4 1 - 130° SO
Do, 16.08. 2:30 2 1 4 130° SO
Do, 16.08. 2:00 2 1 9 130° SO
Do, 16.08. 1:30 4 1 11 150° SO
Do, 16.08. 1:00 6 1 11 160° S
Do, 16.08. 0:30 4 1 11 210° SW
Ortszeit Untergrenze Bedeckung Gattung
total tief tief mittel hoch
Do, 16.08. 2:00 2100 m 6/8 - - - -
Mi, 15.08. 20:00 1500 m 8/8 8/8 - - -
Mi, 15.08. 14:00 1500 m 8/8 8/8 - - -
Mi, 15.08. 8:00 1800 m 2/8 - - - -
Mi, 15.08. 2:00 1500 m 8/8 3/8 - - -
Di, 14.08. 20:00 1260 m 8/8 5/8 - - -
Di, 14.08. 14:00 240 m 8/8 8/8 - - -
Di, 14.08. 8:00 270 m 8/8 8/8 - - -
Ortszeit Bedeckungsgrad in Achtel und Wolkenuntergrenze
Do, 16.08. 3:30 1(1470m) 3(2100m) 5(10500m)
Do, 16.08. 3:20 1(1470m) 3(2100m) 5(10500m)
Do, 16.08. 3:10 1(1440m) 5(10500m) 7(12000m)
Do, 16.08. 3:00 2(1110m) 6(1470m) 7(12000m)
Do, 16.08. 2:50 2(1110m) 6(1470m) 7(12000m)
Do, 16.08. 2:40 3(1110m) 8(1470m)
Do, 16.08. 2:30 6(1470m) 7(2100m)
Do, 16.08. 2:00 1(2100m) 6(10500m) 9
Do, 16.08. 1:30 3(2400m) 9 9
Do, 16.08. 1:00 3(2400m)
Do, 16.08. 0:30 6(1500m) 7(2100m) 9
Ortszeit Luftdruck NN (hPa) Tendenz (hPa in 3 Std.)
Do, 16.08. 2:00 1018 - 0,2
Mi, 15.08. 20:00 1018 - 0,4
Mi, 15.08. 14:00 1019 - 0,2
Mi, 15.08. 8:00 1018 + 0,7
Mi, 15.08. 2:00 1018 + 1,0
Di, 14.08. 20:00 1015 + 1,3
Di, 14.08. 14:00 1013 + 1,9
Di, 14.08. 8:00 1009 + 0,8
Ortszeit Luftdruck NN (hPa) Tendenz (hPa in 3 Std.)
Do, 16.08. 3:30 1018 - 0,3
Do, 16.08. 3:20 1018 keine Meldung
Do, 16.08. 3:10 1018 keine Meldung
Do, 16.08. 3:00 1018 - 0,3
Do, 16.08. 2:50 1018 keine Meldung
Do, 16.08. 2:40 1018 keine Meldung
Do, 16.08. 2:30 1018 - 0,1
Do, 16.08. 2:00 1018 - 0,2
Do, 16.08. 1:30 1018 - 0,3
Do, 16.08. 1:00 1018 - 0,1
Do, 16.08. 0:30 1018 - 0,2
Ortszeit Schneehöhe (cm)
Do, 16.08. 2:00 -
Mi, 15.08. 20:00 -
Mi, 15.08. 14:00 -
Mi, 15.08. 8:00 -
Mi, 15.08. 2:00 -
Di, 14.08. 20:00 -
Di, 14.08. 14:00 -
Di, 14.08. 8:00 -
Ortszeit Schneehöhe (cm)
Do, 16.08. 3:30 -
Do, 16.08. 3:20 -
Do, 16.08. 3:10 -
Do, 16.08. 3:00 -
Do, 16.08. 2:50 -
Do, 16.08. 2:40 -
Do, 16.08. 2:30 -
Do, 16.08. 2:00 -
Do, 16.08. 1:30 -
Do, 16.08. 1:00 -
Do, 16.08. 0:30 -
Link zu dieser Seite / Seite empfehlen

Das Wetter in ...